createdAt,value
2023-05-07T00:00:53.678Z,23.58
2023-05-07T00:01:55.195Z,24.42
2023-05-07T00:02:56.824Z,24.83
2023-05-07T00:03:58.775Z,22.05
2023-05-07T00:05:00.504Z,22.92
2023-05-07T00:06:03.262Z,23.58
2023-05-07T00:07:07.241Z,26.75
2023-05-07T00:08:08.840Z,23.58
2023-05-07T00:09:10.864Z,23.65
2023-05-07T00:10:14.260Z,27.10
2023-05-07T00:11:16.954Z,24.27
2023-05-07T00:12:18.522Z,21.95
2023-05-07T00:13:26.590Z,24.38
2023-05-07T00:14:29.038Z,25.40
2023-05-07T00:15:30.631Z,24.05
2023-05-07T00:16:35.923Z,22.52
2023-05-07T00:17:38.139Z,24.33
2023-05-07T00:18:40.135Z,22.83
2023-05-07T00:19:42.440Z,22.23
2023-05-07T00:20:46.486Z,22.15
2023-05-07T00:21:48.079Z,21.90
2023-05-07T00:22:49.614Z,23.33
2023-05-07T00:23:51.149Z,24.83
2023-05-07T00:24:52.669Z,26.80
2023-05-07T00:25:54.247Z,22.58
2023-05-07T00:26:55.817Z,24.10
2023-05-07T00:27:58.677Z,22.58
2023-05-07T00:29:00.266Z,21.52
2023-05-07T00:30:05.733Z,25.35
2023-05-07T00:31:07.293Z,21.10
2023-05-07T00:32:11.682Z,22.45
2023-05-07T00:33:13.357Z,24.65
2023-05-07T00:34:14.989Z,24.67
2023-05-07T00:35:16.588Z,24.33
2023-05-07T00:36:18.207Z,23.58
2023-05-07T00:37:19.775Z,24.95
2023-05-07T00:38:21.927Z,23.80
2023-05-07T00:39:26.853Z,24.60
2023-05-07T00:40:28.458Z,21.95
2023-05-07T00:41:31.716Z,23.60
2023-05-07T00:42:33.916Z,26.20
2023-05-07T00:43:35.455Z,23.27
2023-05-07T00:44:37.110Z,23.05
2023-05-07T00:45:38.978Z,24.75
2023-05-07T00:46:40.999Z,22.05
2023-05-07T00:47:43.165Z,24.77
2023-05-07T00:48:44.771Z,24.80
2023-05-07T00:49:46.699Z,22.10
2023-05-07T00:50:49.319Z,23.75
2023-05-07T00:51:50.997Z,22.42
2023-05-07T00:52:52.686Z,24.13
2023-05-07T00:53:54.993Z,23.27
2023-05-07T00:54:56.805Z,23.95
2023-05-07T00:55:58.459Z,22.45
2023-05-07T00:57:02.455Z,21.75
2023-05-07T00:58:04.078Z,22.85
2023-05-07T00:59:06.396Z,24.75
2023-05-07T01:00:14.703Z,24.27
2023-05-07T01:01:17.790Z,24.30
2023-05-07T01:02:19.534Z,22.45
2023-05-07T01:03:21.857Z,25.10
2023-05-07T01:04:23.960Z,23.95
2023-05-07T01:05:27.849Z,22.70
2023-05-07T01:06:34.269Z,22.15
2023-05-07T01:07:37.937Z,24.30
2023-05-07T01:08:41.060Z,24.08
2023-05-07T01:09:42.702Z,24.00
2023-05-07T01:10:45.474Z,23.05
2023-05-07T01:11:47.896Z,21.23
2023-05-07T01:12:52.209Z,22.98
2023-05-07T01:13:54.151Z,23.92
2023-05-07T01:14:55.995Z,22.90
2023-05-07T01:15:57.624Z,22.73
2023-05-07T01:17:02.127Z,23.67
2023-05-07T01:18:03.981Z,22.80
2023-05-07T01:19:05.883Z,21.77
2023-05-07T01:20:08.636Z,23.67
2023-05-07T01:21:11.966Z,24.45
2023-05-07T01:22:17.478Z,21.83
2023-05-07T01:23:19.651Z,26.30
2023-05-07T01:24:23.896Z,23.67
2023-05-07T01:25:26.006Z,24.67
2023-05-07T01:26:27.927Z,24.48
2023-05-07T01:27:29.930Z,23.48
2023-05-07T01:28:31.650Z,26.90
2023-05-07T01:29:33.177Z,25.90
2023-05-07T01:30:35.733Z,27.38
2023-05-07T01:31:37.682Z,22.33
2023-05-07T01:32:43.982Z,26.30
2023-05-07T01:33:46.189Z,24.33
2023-05-07T01:34:49.342Z,22.08
2023-05-07T01:35:54.742Z,28.15
2023-05-07T01:36:59.112Z,25.15
2023-05-07T01:38:04.338Z,25.58
2023-05-07T01:39:07.532Z,23.80
2023-05-07T01:40:10.768Z,24.23
2023-05-07T01:41:13.450Z,28.85
2023-05-07T01:42:15.117Z,26.25
2023-05-07T01:43:17.004Z,26.60
2023-05-07T01:44:19.489Z,28.13
2023-05-07T01:45:21.398Z,25.13
2023-05-07T01:46:22.977Z,22.65
2023-05-07T01:47:25.137Z,24.25
2023-05-07T01:48:27.148Z,22.73
2023-05-07T01:49:29.037Z,25.40
2023-05-07T01:50:31.818Z,22.83
2023-05-07T01:51:34.097Z,23.48
2023-05-07T01:52:35.801Z,25.02
2023-05-07T01:53:37.890Z,24.35
2023-05-07T01:54:39.536Z,26.08
2023-05-07T01:55:41.223Z,25.45
2023-05-07T01:56:42.765Z,24.80
2023-05-07T01:57:44.358Z,25.63
2023-05-07T01:58:47.342Z,23.55
2023-05-07T01:59:51.827Z,24.95
2023-05-07T02:00:53.945Z,26.42
2023-05-07T02:01:55.693Z,27.23
2023-05-07T02:02:58.186Z,24.27
2023-05-07T02:04:00.017Z,27.25
2023-05-07T02:05:02.665Z,26.73
2023-05-07T02:06:06.185Z,26.20
2023-05-07T02:07:07.798Z,27.20
2023-05-07T02:08:09.373Z,26.02
2023-05-07T02:09:13.861Z,23.38
2023-05-07T02:10:16.633Z,24.52
2023-05-07T02:11:19.441Z,26.58
2023-05-07T02:12:21.039Z,25.30
2023-05-07T02:13:25.543Z,24.42
2023-05-07T02:14:28.197Z,24.42
2023-05-07T02:15:32.335Z,23.30
2023-05-07T02:16:33.926Z,24.17
2023-05-07T02:17:37.797Z,24.25
2023-05-07T02:18:39.438Z,22.13
2023-05-07T02:19:40.979Z,24.13
2023-05-07T02:20:43.029Z,24.75
2023-05-07T02:21:44.664Z,22.70
2023-05-07T02:22:46.171Z,26.85
2023-05-07T02:23:49.292Z,24.17
2023-05-07T02:24:50.810Z,25.17
2023-05-07T02:25:52.418Z,26.75
2023-05-07T02:26:53.981Z,25.17
2023-05-07T02:27:55.537Z,27.77
2023-05-07T02:28:57.987Z,28.02
2023-05-07T02:30:01.831Z,28.20
2023-05-07T02:31:04.154Z,27.35
2023-05-07T02:32:06.062Z,26.27
2023-05-07T02:33:09.499Z,25.08
2023-05-07T02:34:12.501Z,25.65
2023-05-07T02:35:14.973Z,24.77
2023-05-07T02:36:16.581Z,26.27
2023-05-07T02:37:18.097Z,23.50
2023-05-07T02:38:19.647Z,25.27
2023-05-07T02:39:21.153Z,21.45
2023-05-07T02:40:23.964Z,23.25
2023-05-07T02:41:25.541Z,25.50
2023-05-07T02:42:27.959Z,23.05
2023-05-07T02:43:30.168Z,24.08
2023-05-07T02:44:32.584Z,24.25
2023-05-07T02:45:34.348Z,22.52
2023-05-07T02:46:36.002Z,23.67
2023-05-07T02:47:37.551Z,25.10
2023-05-07T02:48:41.406Z,25.48
2023-05-07T02:49:43.662Z,28.15
2023-05-07T02:50:45.225Z,24.42
2023-05-07T02:51:46.990Z,27.35
2023-05-07T02:52:49.257Z,24.00
2023-05-07T02:53:50.977Z,28.88
2023-05-07T02:54:52.527Z,23.45
2023-05-07T02:55:58.458Z,26.45
2023-05-07T02:57:01.870Z,24.63
2023-05-07T02:58:04.024Z,24.65
2023-05-07T02:59:05.649Z,25.65
2023-05-07T03:00:18.957Z,24.33
2023-05-07T03:01:22.038Z,27.65
2023-05-07T03:02:24.019Z,25.77
2023-05-07T03:03:26.795Z,26.45
2023-05-07T03:04:28.385Z,26.50
2023-05-07T03:05:30.008Z,25.63
2023-05-07T03:06:31.608Z,24.45
2023-05-07T03:07:33.464Z,24.67
2023-05-07T03:08:35.057Z,24.20
2023-05-07T03:09:38.171Z,24.92
2023-05-07T03:10:43.690Z,26.50
2023-05-07T03:11:46.068Z,24.10
2023-05-07T03:12:48.072Z,24.48
2023-05-07T03:13:53.354Z,24.33
2023-05-07T03:14:58.952Z,24.65
2023-05-07T03:16:00.549Z,25.48
2023-05-07T03:17:02.970Z,25.45
2023-05-07T03:18:07.161Z,25.98
2023-05-07T03:19:10.127Z,26.38
2023-05-07T03:20:13.231Z,26.10
2023-05-07T03:21:16.304Z,24.50
2023-05-07T03:22:20.236Z,25.52
2023-05-07T03:23:25.082Z,25.23
2023-05-07T03:24:26.938Z,25.90
2023-05-07T03:25:29.408Z,28.20
2023-05-07T03:26:31.015Z,25.75
2023-05-07T03:27:35.731Z,26.98
2023-05-07T03:28:37.870Z,25.52
2023-05-07T03:29:41.056Z,25.15
2023-05-07T03:30:42.642Z,24.80
2023-05-07T03:31:44.277Z,27.63
2023-05-07T03:32:45.915Z,25.85
2023-05-07T03:33:54.753Z,24.85
2023-05-07T03:34:56.985Z,22.08
2023-05-07T03:35:58.608Z,25.05
2023-05-07T03:37:00.257Z,23.88
2023-05-07T03:38:02.187Z,25.23
2023-05-07T03:39:04.070Z,24.17
2023-05-07T03:40:06.622Z,23.42
2023-05-07T03:41:08.202Z,23.02
2023-05-07T03:42:09.887Z,23.90
2023-05-07T03:43:11.557Z,27.20
2023-05-07T03:44:14.592Z,23.95
2023-05-07T03:45:16.587Z,22.13
2023-05-07T03:46:18.178Z,24.50
2023-05-07T03:47:19.748Z,23.75
2023-05-07T03:48:21.422Z,21.80
2023-05-07T03:49:23.008Z,22.83
2023-05-07T03:50:25.946Z,24.08
2023-05-07T03:51:28.047Z,21.45
2023-05-07T03:52:29.565Z,21.88
2023-05-07T03:53:31.222Z,21.58
2023-05-07T03:54:32.877Z,23.80
2023-05-07T03:55:34.449Z,25.38
2023-05-07T03:56:36.048Z,23.92
2023-05-07T03:57:37.650Z,22.95
2023-05-07T03:58:39.996Z,25.48
2023-05-07T03:59:41.779Z,22.67
2023-05-07T04:00:43.570Z,21.60
2023-05-07T04:01:45.110Z,23.95
2023-05-07T04:02:46.849Z,21.30
2023-05-07T04:03:49.117Z,20.90
2023-05-07T04:04:51.133Z,22.20
2023-05-07T04:05:52.996Z,20.58
2023-05-07T04:06:54.587Z,22.20
2023-05-07T04:07:57.265Z,24.00
2023-05-07T04:09:01.464Z,21.27
2023-05-07T04:10:03.477Z,21.55
2023-05-07T04:11:04.996Z,22.80
2023-05-07T04:12:06.729Z,21.20
2023-05-07T04:13:09.051Z,23.25
2023-05-07T04:14:10.806Z,22.38
2023-05-07T04:15:12.390Z,20.80
2023-05-07T04:16:14.077Z,24.55
2023-05-07T04:17:18.184Z,23.48
2023-05-07T04:18:19.732Z,22.45
2023-05-07T04:19:21.266Z,20.27
2023-05-07T04:20:22.867Z,18.83
2023-05-07T04:21:24.421Z,21.73
2023-05-07T04:22:26.010Z,22.80
2023-05-07T04:23:27.579Z,20.48
2023-05-07T04:24:32.098Z,23.00
2023-05-07T04:25:34.272Z,20.42
2023-05-07T04:26:35.888Z,19.15
2023-05-07T04:27:38.832Z,20.52
2023-05-07T04:28:40.725Z,20.30
2023-05-07T04:29:43.474Z,20.25
2023-05-07T04:30:45.045Z,19.73
2023-05-07T04:31:47.100Z,19.88
2023-05-07T04:32:49.405Z,20.05
2023-05-07T04:33:51.800Z,19.13
2023-05-07T04:34:53.397Z,20.55
2023-05-07T04:35:55.069Z,22.50
2023-05-07T04:36:59.830Z,18.52
2023-05-07T04:38:01.475Z,21.77
2023-05-07T04:39:03.694Z,21.25
2023-05-07T04:40:05.590Z,18.23
2023-05-07T04:41:07.734Z,20.02
2023-05-07T04:42:10.167Z,17.35
2023-05-07T04:43:11.957Z,19.25
2023-05-07T04:44:14.029Z,19.38
2023-05-07T04:45:16.425Z,21.17
2023-05-07T04:46:18.150Z,20.88
2023-05-07T04:47:19.750Z,19.13
2023-05-07T04:48:21.670Z,19.83
2023-05-07T04:49:23.254Z,21.20
2023-05-07T04:50:26.003Z,22.70
2023-05-07T04:51:27.665Z,18.20
2023-05-07T04:52:29.267Z,18.75
2023-05-07T04:53:30.935Z,19.58
2023-05-07T04:54:32.527Z,17.80
2023-05-07T04:55:34.198Z,18.88
2023-05-07T04:56:39.252Z,18.75
2023-05-07T04:57:41.756Z,20.45
2023-05-07T04:58:43.360Z,18.50
2023-05-07T04:59:45.441Z,16.63
2023-05-07T05:00:47.791Z,17.88
2023-05-07T05:01:49.436Z,20.02
2023-05-07T05:02:51.198Z,21.10
2023-05-07T05:03:52.838Z,19.10
2023-05-07T05:04:54.471Z,17.23
2023-05-07T05:05:56.100Z,19.58
2023-05-07T05:06:57.776Z,18.40
2023-05-07T05:08:00.093Z,18.38
2023-05-07T05:09:01.754Z,19.05
2023-05-07T05:10:04.291Z,18.38
2023-05-07T05:11:06.590Z,16.30
2023-05-07T05:12:08.679Z,17.90
2023-05-07T05:13:10.871Z,17.35
2023-05-07T05:14:13.154Z,18.60
2023-05-07T05:15:14.778Z,15.85
2023-05-07T05:16:17.001Z,19.25
2023-05-07T05:17:18.649Z,20.95
2023-05-07T05:18:20.412Z,16.55
2023-05-07T05:19:22.167Z,15.13
2023-05-07T05:20:23.732Z,15.95
2023-05-07T05:21:25.388Z,17.30
2023-05-07T05:22:27.053Z,16.58
2023-05-07T05:23:28.659Z,16.80
2023-05-07T05:24:31.673Z,15.85
2023-05-07T05:25:33.280Z,18.40
2023-05-07T05:26:35.503Z,15.20
2023-05-07T05:27:37.179Z,16.95
2023-05-07T05:28:40.369Z,15.73
2023-05-07T05:29:42.172Z,18.85
2023-05-07T05:30:43.817Z,16.25
2023-05-07T05:31:45.442Z,16.17
2023-05-07T05:32:47.189Z,16.42
2023-05-07T05:33:48.887Z,17.45
2023-05-07T05:34:50.669Z,19.23
2023-05-07T05:35:52.310Z,16.40
2023-05-07T05:36:54.053Z,15.32
2023-05-07T05:37:56.204Z,15.43
2023-05-07T05:38:57.927Z,17.50
2023-05-07T05:40:02.469Z,14.20
2023-05-07T05:41:04.103Z,19.15
2023-05-07T05:42:05.937Z,17.63
2023-05-07T05:43:07.630Z,16.20
2023-05-07T05:44:09.218Z,17.00
2023-05-07T05:45:10.924Z,15.73
2023-05-07T05:46:13.250Z,17.30
2023-05-07T05:47:15.401Z,12.88
2023-05-07T05:48:17.077Z,16.08
2023-05-07T05:49:18.764Z,16.15
2023-05-07T05:50:20.498Z,16.17
2023-05-07T05:51:22.466Z,14.77
2023-05-07T05:52:25.435Z,16.35
2023-05-07T05:53:27.043Z,16.30
2023-05-07T05:54:29.097Z,17.10
2023-05-07T05:55:31.121Z,14.60
2023-05-07T05:56:32.763Z,15.75
2023-05-07T05:57:34.334Z,14.68
2023-05-07T05:58:36.095Z,15.82
2023-05-07T05:59:37.784Z,16.23
2023-05-07T06:00:39.583Z,15.27
2023-05-07T06:01:41.345Z,14.55
2023-05-07T06:02:44.362Z,13.48
2023-05-07T06:03:46.101Z,16.73
2023-05-07T06:04:48.232Z,15.15
2023-05-07T06:05:52.098Z,13.95
2023-05-07T06:06:54.221Z,15.05
2023-05-07T06:07:56.197Z,12.90
2023-05-07T06:08:58.500Z,13.38
2023-05-07T06:10:02.434Z,14.38
2023-05-07T06:11:04.402Z,13.23
2023-05-07T06:12:07.458Z,13.73
2023-05-07T06:13:11.709Z,14.15
2023-05-07T06:14:14.541Z,13.40
2023-05-07T06:15:16.275Z,14.55
2023-05-07T06:16:17.929Z,17.17
2023-05-07T06:17:21.626Z,16.08
2023-05-07T06:18:24.154Z,14.40
2023-05-07T06:19:27.774Z,14.38
2023-05-07T06:20:30.508Z,16.88
2023-05-07T06:21:32.558Z,14.40
2023-05-07T06:22:35.524Z,15.23
2023-05-07T06:23:37.155Z,16.05
2023-05-07T06:24:41.802Z,12.95
2023-05-07T06:25:50.279Z,13.20
2023-05-07T06:26:51.876Z,15.75
2023-05-07T06:27:56.545Z,13.55
2023-05-07T06:28:59.184Z,14.55
2023-05-07T06:30:00.837Z,14.63
2023-05-07T06:31:12.203Z,13.43
2023-05-07T06:32:14.785Z,15.32
2023-05-07T06:33:16.861Z,14.02
2023-05-07T06:34:18.464Z,12.00
2023-05-07T06:35:20.201Z,14.23
2023-05-07T06:36:21.878Z,14.23
2023-05-07T06:37:23.556Z,12.65
2023-05-07T06:38:27.051Z,15.27
2023-05-07T06:39:28.713Z,13.65
2023-05-07T06:40:30.478Z,15.10
2023-05-07T06:41:32.146Z,17.27
2023-05-07T06:42:33.786Z,13.30
2023-05-07T06:43:37.380Z,15.70
2023-05-07T06:44:38.946Z,15.75
2023-05-07T06:45:42.156Z,14.15
2023-05-07T06:46:43.859Z,13.13
2023-05-07T06:47:46.362Z,15.90
2023-05-07T06:48:48.162Z,13.82
2023-05-07T06:49:49.773Z,14.90
2023-05-07T06:50:52.240Z,12.88
2023-05-07T06:51:53.859Z,11.95
2023-05-07T06:52:56.135Z,13.88
2023-05-07T06:53:57.728Z,12.40
2023-05-07T06:54:59.305Z,12.50
2023-05-07T06:56:01.081Z,15.48
2023-05-07T06:57:03.158Z,12.25
2023-05-07T06:58:04.986Z,13.30
2023-05-07T06:59:08.084Z,14.85
2023-05-07T07:00:11.506Z,15.77
2023-05-07T07:01:14.231Z,13.25
2023-05-07T07:02:18.209Z,13.55
2023-05-07T07:03:20.107Z,13.75
2023-05-07T07:04:24.226Z,14.90
2023-05-07T07:05:25.877Z,14.68
2023-05-07T07:06:28.802Z,13.95
2023-05-07T07:07:30.489Z,15.77
2023-05-07T07:08:32.195Z,16.73
2023-05-07T07:09:34.231Z,16.55
2023-05-07T07:10:36.309Z,18.40
2023-05-07T07:11:39.404Z,19.77
2023-05-07T07:12:41.138Z,16.25
2023-05-07T07:13:43.941Z,15.23
2023-05-07T07:14:45.597Z,17.85
2023-05-07T07:15:48.338Z,18.77
2023-05-07T07:16:50.045Z,18.75
2023-05-07T07:17:51.984Z,21.38
2023-05-07T07:18:54.188Z,17.42
2023-05-07T07:19:55.844Z,17.27
2023-05-07T07:20:57.458Z,17.17
2023-05-07T07:21:59.088Z,16.98
2023-05-07T07:23:01.282Z,17.88
2023-05-07T07:24:03.394Z,17.00
2023-05-07T07:25:05.962Z,20.45
2023-05-07T07:26:10.236Z,19.15
2023-05-07T07:27:11.862Z,17.65
2023-05-07T07:28:13.512Z,19.50
2023-05-07T07:29:17.710Z,17.73
2023-05-07T07:30:19.299Z,19.48
2023-05-07T07:31:20.909Z,21.55
2023-05-07T07:32:22.547Z,24.15
2023-05-07T07:33:24.308Z,22.30
2023-05-07T07:34:26.132Z,19.50
2023-05-07T07:35:28.206Z,19.08
2023-05-07T07:36:42.557Z,21.02
2023-05-07T07:37:48.641Z,24.17
2023-05-07T07:38:50.269Z,24.35
2023-05-07T07:39:51.984Z,18.73
2023-05-07T07:40:53.531Z,19.55
2023-05-07T07:41:55.091Z,21.50
2023-05-07T07:42:57.780Z,17.95
2023-05-07T07:44:00.160Z,17.30
2023-05-07T07:45:01.803Z,22.08
2023-05-07T07:46:03.424Z,19.65
2023-05-07T07:47:05.041Z,17.33
2023-05-07T07:48:07.390Z,19.80
2023-05-07T07:49:10.287Z,22.48
2023-05-07T07:50:14.868Z,23.60
2023-05-07T07:51:22.089Z,23.98
2023-05-07T07:52:23.701Z,22.55
2023-05-07T07:53:25.669Z,22.52
2023-05-07T07:54:28.166Z,19.25
2023-05-07T07:55:30.274Z,19.10
2023-05-07T07:56:33.271Z,19.75
2023-05-07T07:57:34.872Z,19.45
2023-05-07T07:58:37.934Z,19.42
2023-05-07T07:59:40.731Z,20.60
2023-05-07T08:00:43.246Z,19.15
2023-05-07T08:01:46.537Z,20.27
2023-05-07T08:02:48.466Z,18.83
2023-05-07T08:03:50.312Z,18.63
2023-05-07T08:04:51.982Z,18.35
2023-05-07T08:05:53.570Z,18.63
2023-05-07T08:06:58.768Z,18.98
2023-05-07T08:08:01.319Z,19.23
2023-05-07T08:09:03.744Z,17.05
2023-05-07T08:10:05.366Z,19.88
2023-05-07T08:11:06.977Z,19.85
2023-05-07T08:12:10.189Z,18.02
2023-05-07T08:13:12.331Z,20.17
2023-05-07T08:14:14.798Z,18.52
2023-05-07T08:15:16.833Z,18.67
2023-05-07T08:16:18.486Z,18.33
2023-05-07T08:17:20.312Z,18.60
2023-05-07T08:18:22.274Z,21.35
2023-05-07T08:19:24.136Z,20.77
2023-05-07T08:20:26.412Z,19.63
2023-05-07T08:21:27.948Z,19.00
2023-05-07T08:22:30.168Z,18.00
2023-05-07T08:23:32.044Z,17.33
2023-05-07T08:24:34.217Z,17.55
2023-05-07T08:25:36.023Z,18.23
2023-05-07T08:26:40.143Z,17.50
2023-05-07T08:27:43.004Z,16.17
2023-05-07T08:28:45.246Z,16.52
2023-05-07T08:29:48.722Z,18.08
2023-05-07T08:30:50.387Z,17.38
2023-05-07T08:31:51.994Z,16.55
2023-05-07T08:32:53.881Z,20.55
2023-05-07T08:33:55.422Z,16.38
2023-05-07T08:34:57.180Z,18.15
2023-05-07T08:35:59.418Z,16.98
2023-05-07T08:37:04.598Z,16.13
2023-05-07T08:38:07.873Z,18.20
2023-05-07T08:39:10.167Z,16.20
2023-05-07T08:40:14.531Z,20.00
2023-05-07T08:41:16.559Z,17.90
2023-05-07T08:42:18.153Z,18.02
2023-05-07T08:43:20.762Z,16.25
2023-05-07T08:44:23.640Z,19.40
2023-05-07T08:45:25.508Z,18.55
2023-05-07T08:46:31.329Z,17.85
2023-05-07T08:47:38.960Z,17.77
2023-05-07T08:48:40.760Z,17.98
2023-05-07T08:49:42.704Z,17.80
2023-05-07T08:50:44.348Z,16.67
2023-05-07T08:51:46.177Z,16.83
2023-05-07T08:52:48.598Z,18.50
2023-05-07T08:53:53.680Z,16.95
2023-05-07T08:54:55.304Z,17.77
2023-05-07T08:55:57.238Z,18.40
2023-05-07T08:57:00.593Z,17.58
2023-05-07T08:58:02.619Z,19.58
2023-05-07T08:59:05.488Z,19.58
2023-05-07T09:00:09.233Z,18.42
2023-05-07T09:01:14.005Z,20.00
2023-05-07T09:02:17.409Z,20.05
2023-05-07T09:03:20.739Z,16.17
2023-05-07T09:04:22.428Z,19.33
2023-05-07T09:05:24.347Z,20.45
2023-05-07T09:06:26.208Z,17.67
2023-05-07T09:07:29.038Z,21.88
2023-05-07T09:08:30.798Z,17.83
2023-05-07T09:09:33.900Z,17.58
2023-05-07T09:10:35.616Z,18.83
2023-05-07T09:11:38.748Z,17.70
2023-05-07T09:12:41.547Z,16.33
2023-05-07T09:13:43.697Z,17.50
2023-05-07T09:14:45.399Z,18.33
2023-05-07T09:15:47.186Z,16.70
2023-05-07T09:16:49.247Z,17.25
2023-05-07T09:17:50.826Z,17.52
2023-05-07T09:18:56.840Z,17.52
2023-05-07T09:20:04.224Z,17.48
2023-05-07T09:21:08.027Z,18.48
2023-05-07T09:22:09.741Z,18.15
2023-05-07T09:23:11.290Z,18.05
2023-05-07T09:24:13.022Z,17.10
2023-05-07T09:25:14.866Z,18.33
2023-05-07T09:26:16.526Z,16.63
2023-05-07T09:27:18.744Z,16.20
2023-05-07T09:28:20.566Z,19.85
2023-05-07T09:29:22.101Z,17.88
2023-05-07T09:30:23.696Z,16.02
2023-05-07T09:31:27.218Z,16.92
2023-05-07T09:32:28.961Z,15.43
2023-05-07T09:33:31.579Z,16.35
2023-05-07T09:34:33.517Z,18.92
2023-05-07T09:35:35.044Z,15.57
2023-05-07T09:36:37.262Z,15.40
2023-05-07T09:37:38.900Z,18.92
2023-05-07T09:38:40.502Z,17.05
2023-05-07T09:39:52.103Z,18.42
2023-05-07T09:41:13.052Z,16.83
2023-05-07T09:42:16.215Z,18.48
2023-05-07T09:43:17.878Z,17.75
2023-05-07T09:44:19.788Z,15.63
2023-05-07T09:45:26.302Z,17.20
2023-05-07T09:46:31.644Z,16.52
2023-05-07T09:47:34.021Z,17.73
2023-05-07T09:48:41.024Z,26.00
2023-05-07T09:49:44.318Z,17.00
2023-05-07T09:50:49.470Z,15.73
2023-05-07T09:51:52.022Z,19.98
2023-05-07T09:52:53.814Z,18.70
2023-05-07T09:53:57.237Z,16.15
2023-05-07T09:55:00.337Z,14.77
2023-05-07T09:56:04.481Z,14.43
2023-05-07T09:57:08.082Z,17.33
2023-05-07T09:58:10.420Z,14.88
2023-05-07T09:59:14.520Z,18.85
2023-05-07T10:00:27.309Z,14.93
2023-05-07T10:01:29.211Z,14.75
2023-05-07T10:02:31.547Z,16.30
2023-05-07T10:03:35.683Z,14.52
2023-05-07T10:04:38.762Z,14.93
2023-05-07T10:05:40.579Z,14.95
2023-05-07T10:06:42.812Z,15.50
2023-05-07T10:07:57.841Z,15.82
2023-05-07T10:09:00.003Z,14.73
2023-05-07T10:10:02.840Z,14.68
2023-05-07T10:11:05.153Z,15.35
2023-05-07T10:12:07.597Z,14.70
2023-05-07T10:13:12.019Z,15.13
2023-05-07T10:14:14.401Z,15.82
2023-05-07T10:15:15.960Z,14.82
2023-05-07T10:16:18.246Z,15.63
2023-05-07T10:17:20.332Z,14.30
2023-05-07T10:18:24.805Z,15.45
2023-05-07T10:19:27.444Z,15.27
2023-05-07T10:20:29.062Z,15.93
2023-05-07T10:21:32.704Z,14.43
2023-05-07T10:22:39.624Z,15.35
2023-05-07T10:23:41.646Z,13.93
2023-05-07T10:24:45.951Z,14.68
2023-05-07T10:25:47.933Z,15.90
2023-05-07T10:26:51.140Z,12.98
2023-05-07T10:27:54.112Z,15.73
2023-05-07T10:28:58.211Z,13.60
2023-05-07T10:30:10.409Z,14.13
2023-05-07T10:31:37.736Z,13.10
2023-05-07T10:32:39.454Z,14.15
2023-05-07T10:33:43.631Z,12.48
2023-05-07T10:34:46.561Z,14.50
2023-05-07T10:35:48.722Z,14.35
2023-05-07T10:36:51.009Z,14.48
2023-05-07T10:37:53.968Z,13.68
2023-05-07T10:38:56.218Z,19.42
2023-05-07T10:39:58.779Z,12.48
2023-05-07T10:41:00.525Z,13.90
2023-05-07T10:42:14.767Z,14.23
2023-05-07T10:43:16.342Z,13.38
2023-05-07T10:44:30.476Z,12.27
2023-05-07T10:45:32.658Z,12.23
2023-05-07T10:46:36.671Z,11.85
2023-05-07T10:47:59.286Z,13.65
2023-05-07T10:49:09.705Z,12.50
2023-05-07T10:50:11.570Z,11.63
2023-05-07T10:51:20.103Z,13.93
2023-05-07T10:52:22.763Z,12.27
2023-05-07T10:53:27.121Z,12.10
2023-05-07T10:54:28.713Z,12.27
2023-05-07T10:55:31.504Z,11.93
2023-05-07T10:56:33.045Z,12.05
2023-05-07T10:57:53.503Z,11.70
2023-05-07T10:58:55.109Z,13.02
2023-05-07T10:59:59.293Z,12.55
2023-05-07T11:01:02.206Z,10.95
2023-05-07T11:02:22.260Z,11.95
2023-05-07T11:03:23.842Z,10.88
2023-05-07T11:04:27.764Z,13.02
2023-05-07T11:05:30.889Z,11.88
2023-05-07T11:06:35.682Z,12.25
2023-05-07T11:07:37.269Z,10.73
2023-05-07T11:08:54.116Z,13.02
2023-05-07T11:09:57.015Z,10.65
2023-05-07T11:10:59.642Z,10.35
2023-05-07T11:12:01.308Z,11.02
2023-05-07T11:13:03.112Z,11.43
2023-05-07T11:14:04.760Z,12.52
2023-05-07T11:15:07.170Z,9.55
2023-05-07T11:16:21.613Z,11.25
2023-05-07T11:17:23.234Z,12.10
2023-05-07T11:18:24.839Z,10.60
2023-05-07T11:19:46.350Z,10.38
2023-05-07T11:20:55.189Z,11.40
2023-05-07T11:21:56.749Z,10.52
2023-05-07T11:22:59.837Z,9.68
2023-05-07T11:24:02.208Z,10.07
2023-05-07T11:25:04.527Z,9.40
2023-05-07T11:26:06.881Z,10.65
2023-05-07T11:28:11.619Z,11.07
2023-05-07T11:29:18.290Z,9.32
2023-05-07T11:30:22.021Z,12.75
2023-05-07T11:31:28.049Z,10.73
2023-05-07T11:32:31.145Z,11.18
2023-05-07T11:33:33.482Z,9.15
2023-05-07T11:34:35.073Z,10.32
2023-05-07T11:35:37.366Z,9.55
2023-05-07T11:36:44.015Z,9.70
2023-05-07T11:37:48.214Z,10.48
2023-05-07T11:38:52.708Z,9.80
2023-05-07T11:40:11.093Z,10.73
2023-05-07T11:41:12.930Z,9.20
2023-05-07T11:42:47.120Z,9.40
2023-05-07T11:43:56.233Z,10.07
2023-05-07T11:45:07.772Z,8.63
2023-05-07T11:46:12.970Z,8.82
2023-05-07T11:47:21.506Z,8.57
2023-05-07T11:48:29.871Z,10.98
2023-05-07T11:49:32.693Z,11.68
2023-05-07T11:50:35.436Z,9.38
2023-05-07T11:51:41.990Z,9.02
2023-05-07T11:52:51.976Z,9.65
2023-05-07T11:53:56.068Z,8.70
2023-05-07T11:55:01.242Z,9.00
2023-05-07T11:56:16.903Z,7.93
2023-05-07T11:57:20.544Z,9.80
2023-05-07T11:58:23.391Z,11.85
2023-05-07T11:59:25.256Z,11.15
2023-05-07T12:00:27.080Z,9.02
2023-05-07T12:01:29.073Z,10.32
2023-05-07T12:02:31.027Z,8.73
2023-05-07T12:03:36.236Z,8.93
2023-05-07T12:04:47.312Z,9.13
2023-05-07T12:05:52.302Z,10.02
2023-05-07T12:06:57.083Z,9.20
2023-05-07T12:07:58.891Z,10.57
2023-05-07T12:09:00.574Z,10.82
2023-05-07T12:10:05.871Z,9.38
2023-05-07T12:11:12.578Z,10.45
2023-05-07T12:12:16.720Z,10.23
2023-05-07T12:13:26.079Z,9.90
2023-05-07T12:14:31.352Z,9.18
2023-05-07T12:15:35.967Z,8.90
2023-05-07T12:16:37.656Z,10.50
2023-05-07T12:17:39.492Z,10.30
2023-05-07T12:18:41.249Z,9.77
2023-05-07T12:19:44.123Z,9.35
2023-05-07T12:20:46.436Z,9.32
2023-05-07T12:21:48.142Z,9.35
2023-05-07T12:22:51.330Z,8.30
2023-05-07T12:23:52.946Z,8.32
2023-05-07T12:24:58.913Z,7.80
2023-05-07T12:26:01.481Z,8.38
2023-05-07T12:27:03.045Z,8.20
2023-05-07T12:28:06.233Z,8.77
2023-05-07T12:29:08.286Z,10.00
2023-05-07T12:30:11.144Z,8.65
2023-05-07T12:31:14.957Z,8.77
2023-05-07T12:32:18.120Z,9.23
2023-05-07T12:33:22.188Z,8.60
2023-05-07T12:34:23.845Z,8.35
2023-05-07T12:35:44.438Z,7.70
2023-05-07T12:36:49.090Z,7.35
2023-05-07T12:37:56.107Z,6.90
2023-05-07T12:38:57.795Z,6.65
2023-05-07T12:40:25.552Z,7.53
2023-05-07T12:41:30.343Z,7.18
2023-05-07T12:42:34.124Z,7.90
2023-05-07T12:43:35.869Z,7.97
2023-05-07T12:44:37.688Z,8.45
2023-05-07T12:45:43.570Z,12.57
2023-05-07T12:46:45.184Z,9.02
2023-05-07T12:47:50.375Z,7.72
2023-05-07T12:48:53.447Z,9.70
2023-05-07T12:49:55.596Z,7.95
2023-05-07T12:50:57.946Z,8.70
2023-05-07T12:52:00.081Z,8.70
2023-05-07T12:53:07.813Z,7.32
2023-05-07T12:54:09.563Z,6.72
2023-05-07T12:55:14.672Z,7.88
2023-05-07T12:56:17.099Z,8.10
2023-05-07T12:57:20.664Z,7.78
2023-05-07T12:58:28.982Z,7.82
2023-05-07T12:59:34.377Z,6.88
2023-05-07T13:00:37.390Z,8.40
2023-05-07T13:01:38.972Z,7.72
2023-05-07T13:02:41.529Z,7.18
2023-05-07T13:03:50.878Z,12.70
2023-05-07T13:04:52.530Z,7.40
2023-05-07T13:05:58.702Z,8.75
2023-05-07T13:07:01.208Z,7.85
2023-05-07T13:08:02.892Z,8.07
2023-05-07T13:09:05.941Z,8.07
2023-05-07T13:10:07.879Z,6.70
2023-05-07T13:11:09.834Z,6.68
2023-05-07T13:12:11.637Z,7.50
2023-05-07T13:13:13.233Z,8.13
2023-05-07T13:14:14.813Z,7.78
2023-05-07T13:15:16.911Z,7.18
2023-05-07T13:16:22.175Z,8.82
2023-05-07T13:17:24.530Z,7.05
2023-05-07T13:18:27.477Z,7.90
2023-05-07T13:19:31.040Z,7.25
2023-05-07T13:20:33.169Z,7.53
2023-05-07T13:21:34.942Z,7.47
2023-05-07T13:22:36.909Z,8.52
2023-05-07T13:23:39.939Z,8.45
2023-05-07T13:24:42.937Z,8.27
2023-05-07T13:25:44.533Z,7.15
2023-05-07T13:26:46.376Z,9.48
2023-05-07T13:27:53.876Z,7.95
2023-05-07T13:29:01.558Z,9.52
2023-05-07T13:30:03.656Z,8.20
2023-05-07T13:31:06.338Z,7.95
2023-05-07T13:32:07.919Z,7.78
2023-05-07T13:33:09.831Z,7.40
2023-05-07T13:34:11.486Z,10.70
2023-05-07T13:35:13.255Z,9.23
2023-05-07T13:36:15.884Z,7.93
2023-05-07T13:37:17.455Z,10.20